Inicio METAR Ruta Wind Satelite

Informe Meteorológico

Fecha: 2021/09/21 14:47:46 Local
2021.09.21 19:47 UTC


Operación:
SKAR 211900Z 29003KT 9999 BKN018 SCT090 26/19 Q1016 RMK A3001 =